»·PEaware :: N8029B KSNA-KVNY

N8029B :: KSNA-KVNY

FLIGHT INFORMATION

Flight Status: Arrived
Operator: Privately registered:
United States
More flights under this callsign
Pilot: Stephane C. (508)
Aircraft: CESSNA T210 TURBO CENTURION
(T210)
More flights by this aircraft type
Origin: KSNA John Wayne-Orange Co
United States
Destination: KVNY Van Nuys
United States
More flights between these airports :: More routes between these airports
Route: +SLI V23 POPPR SMO125 SMO SMO317 CANOG
File this flight plan on PilotEdge
Remarks:
Altitude:
(Current/Filed)
2,500ft
Speed:
(Current/Filed)
120kts
Departed: 30-Dec-17 10:49 AM
Arrived: 30-Dec-17 11:21 AM
Distance/Time
Traveled:
45nm/0:32
Distance/Time
To Go:
Arrived

Flight Plot

Page will automatically refresh every two minutes.


Map Options




Map Legend


Flown Route
Filed Route
Departure Airport
Arrival Airport
Navaid (VOR, NDB)
Fix

Horizontal Profiles

Position Reports

Time Latitude Longitude Heading Altitude Ground
Speed
30-Dec-17 10:22 33.667492 -117.871273 223 49ft 0kts
30-Dec-17 10:23 33.667492 -117.871273 223 49ft 0kts
30-Dec-17 10:24 33.667492 -117.871273 223 49ft 0kts
30-Dec-17 10:25 33.667492 -117.871273 223 49ft 0kts
30-Dec-17 10:26 33.667492 -117.871273 223 49ft 0kts
30-Dec-17 10:27 33.667492 -117.871273 223 49ft 0kts
30-Dec-17 10:28 33.667492 -117.871274 223 49ft 0kts
30-Dec-17 10:29 33.667492 -117.871274 223 49ft 0kts
30-Dec-17 10:30 33.667492 -117.871274 223 49ft 0kts
30-Dec-17 10:31 33.667492 -117.871274 223 49ft 0kts
30-Dec-17 10:32 33.667492 -117.871274 223 49ft 0kts
30-Dec-17 10:33 33.667492 -117.871274 223 49ft 0kts
30-Dec-17 10:34 33.667492 -117.871274 223 49ft 0kts
30-Dec-17 10:35 33.667492 -117.871274 223 49ft 0kts
30-Dec-17 10:36 33.667492 -117.871274 223 49ft 0kts
30-Dec-17 10:37 33.667492 -117.871274 223 49ft 0kts
30-Dec-17 10:38 33.667492 -117.871274 223 49ft 0kts
30-Dec-17 10:39 33.667492 -117.871274 223 49ft 0kts
30-Dec-17 10:40 33.667492 -117.871274 223 49ft 0kts
30-Dec-17 10:41 33.667492 -117.871274 223 49ft 0kts
30-Dec-17 10:42 33.667492 -117.871274 223 49ft 0kts
30-Dec-17 10:43 33.667492 -117.871274 223 49ft 0kts
30-Dec-17 10:44 33.667492 -117.871274 223 49ft 0kts
30-Dec-17 10:45 33.667492 -117.871274 223 49ft 0kts
30-Dec-17 10:46 33.667492 -117.871274 223 49ft 0kts
30-Dec-17 10:47 33.667527 -117.871507 312 49ft 3kts
30-Dec-17 10:48 33.669748 -117.870290 39 49ft 16kts
30-Dec-17 10:49 33.673322 -117.866993 31 49ft 12kts
30-Dec-17 10:50 33.676947 -117.865292 27 49ft 15kts
30-Dec-17 10:51 33.679980 -117.863667 295 49ft 1kts
30-Dec-17 10:52 33.679981 -117.863669 295 49ft 0kts
30-Dec-17 10:53 33.679981 -117.863669 295 49ft 0kts
30-Dec-17 10:54 33.679870 -117.864323 202 49ft 4kts
30-Dec-17 10:55 33.660934 -117.876415 219 561ft 111kts
30-Dec-17 10:56 33.640236 -117.904661 234 1418ft 113kts
30-Dec-17 10:57 33.620301 -117.933601 227 2133ft 111kts
30-Dec-17 10:58 33.599905 -117.961745 227 2823ft 112kts
30-Dec-17 10:59 33.588531 -117.994609 292 3459ft 116kts
30-Dec-17 11:00 33.606210 -118.026598 316 4026ft 125kts
30-Dec-17 11:01 33.632965 -118.060823 310 4063ft 149kts
30-Dec-17 11:02 33.661492 -118.095358 320 4044ft 147kts
30-Dec-17 11:03 33.692699 -118.127246 316 3992ft 147kts
30-Dec-17 11:04 33.723821 -118.158021 322 3930ft 148kts
30-Dec-17 11:05 33.753524 -118.191940 313 3944ft 150kts
30-Dec-17 11:06 33.780994 -118.222683 319 3949ft 150kts
30-Dec-17 11:07 33.813012 -118.254619 320 3934ft 150kts
30-Dec-17 11:08 33.846445 -118.285192 320 3885ft 151kts
30-Dec-17 11:09 33.878403 -118.316740 319 3910ft 151kts
30-Dec-17 11:10 33.908468 -118.348252 318 3979ft 148kts
30-Dec-17 11:11 33.939202 -118.381097 318 3997ft 149kts
30-Dec-17 11:12 33.970195 -118.413925 316 4032ft 148kts
30-Dec-17 11:13 34.000888 -118.447499 319 4018ft 150kts
30-Dec-17 11:14 34.035179 -118.475569 330 4013ft 150kts
30-Dec-17 11:15 34.072029 -118.499084 337 4005ft 150kts
30-Dec-17 11:16 34.109036 -118.520879 338 3973ft 150kts
30-Dec-17 11:17 34.145223 -118.542538 304 3955ft 150kts
30-Dec-17 11:18 34.159668 -118.590023 287 3944ft 151kts
30-Dec-17 11:19 34.172379 -118.637622 293 3982ft 149kts
30-Dec-17 11:20 34.201329 -118.650381 8 3244ft 133kts
30-Dec-17 11:21 34.225085 -118.624700 51 2638ft 102kts
30-Dec-17 11:22 34.237130 -118.594924 77 2152ft 100kts
30-Dec-17 11:23 34.239900 -118.561876 85 1797ft 94kts
30-Dec-17 11:24 34.240431 -118.530773 89 1713ft 96kts
30-Dec-17 11:25 34.239848 -118.499247 115 1305ft 88kts
30-Dec-17 11:26 34.218967 -118.491246 174 901ft 78kts
30-Dec-17 11:27 34.208145 -118.491025 207 777ft 0kts
30-Dec-17 11:28 34.208567 -118.491397 355 777ft 12kts
30-Dec-17 11:29 34.209272 -118.491888 81 777ft 0kts
30-Dec-17 11:30 34.209280 -118.491811 85 777ft 0kts

Navigation Log

Ident Type
1. KSNA Airport
2. SLI Navaid
3. POPPR Fix
4. SMO Navaid
5. CANOG Fix
6. KVNY Airport